Fairfield, Tennessee
Current Conditions -  °F | °C
As of 3:53 PM on Monday 26 Jan 2015 (Local Time) from KCSV Reporting Station
Overcast Overcast  
Wind Chill: 20°   Ceiling: 700
Heat Index: 28°   Visibility: 9mi
Dew Point: 25°   Wind: 8mph
Humidity: 88%   Direction: 280°W
Pressure: 29.89"   Gusts: NA
Location:  35.8867°N, 85.0211°W
Report Text: KCSV 262153Z AUTO 28007KT 9SM OVC007 M02/M04 A2989 RMK AO2 CIG 005V010 SLP131 T10221039
Loading
Personal Weather Stations






























Interactive Weather Map New forecast layout! Learn more

10-Day Weather Forecast

Advertisements
Track Severe Weather on mobile